createdAt,value
2019-03-08T00:05:01.669Z,22.7
2019-03-08T00:15:00.877Z,22.8
2019-03-08T00:25:00.296Z,22.7
2019-03-08T00:34:59.298Z,22.7
2019-03-08T00:44:58.507Z,22.7
2019-03-08T01:04:56.942Z,22.7
2019-03-08T01:14:56.139Z,22.7
2019-03-08T01:24:55.349Z,22.7
2019-03-08T01:34:54.559Z,22.7
2019-03-08T01:44:53.768Z,22.6
2019-03-08T01:54:52.978Z,22.6
2019-03-08T02:04:52.188Z,22.6
2019-03-08T02:14:51.397Z,22.6
2019-03-08T02:24:50.608Z,22.6
2019-03-08T02:34:49.818Z,22.6
2019-03-08T02:44:49.027Z,22.6
2019-03-08T02:54:48.237Z,22.6
2019-03-08T03:04:47.447Z,22.6
2019-03-08T03:14:46.656Z,22.6
2019-03-08T03:24:45.865Z,22.6
2019-03-08T03:34:45.075Z,22.6
2019-03-08T03:44:44.289Z,22.6
2019-03-08T03:54:43.493Z,22.6
2019-03-08T04:04:42.705Z,22.7
2019-03-08T04:14:41.911Z,22.7
2019-03-08T04:24:41.125Z,22.7
2019-03-08T04:34:40.330Z,22.7
2019-03-08T04:44:39.539Z,22.6
2019-03-08T04:54:38.749Z,22.6
2019-03-08T05:04:37.961Z,22.7
2019-03-08T05:14:37.173Z,22.8
2019-03-08T05:24:36.385Z,22.8
2019-03-08T05:34:35.598Z,22.8
2019-03-08T05:44:34.808Z,22.8
2019-03-08T05:54:34.020Z,22.8
2019-03-08T06:04:33.230Z,22.8
2019-03-08T06:14:32.443Z,22.8
2019-03-08T06:24:31.654Z,22.8
2019-03-08T06:34:32.821Z,22.8
2019-03-08T06:44:30.072Z,22.9
2019-03-08T06:54:29.283Z,22.9
2019-03-08T07:04:28.494Z,23
2019-03-08T07:14:27.706Z,23
2019-03-08T07:24:26.918Z,23.1
2019-03-08T07:34:26.130Z,23.1
2019-03-08T07:44:25.340Z,23.1
2019-03-08T07:54:24.554Z,23.1
2019-03-08T08:04:23.765Z,23.1
2019-03-08T08:14:22.973Z,23.2
2019-03-08T08:24:22.185Z,23.2
2019-03-08T08:34:21.997Z,23.3
2019-03-08T08:44:20.610Z,23.3
2019-03-08T08:54:19.821Z,23.3
2019-03-08T09:04:19.033Z,23.3
2019-03-08T09:14:18.245Z,23.3
2019-03-08T09:24:17.466Z,23.4
2019-03-08T09:34:16.669Z,23.4
2019-03-08T09:44:15.881Z,23.4
2019-03-08T09:54:15.094Z,23.4
2019-03-08T10:04:14.306Z,23.4
2019-03-08T10:14:13.519Z,23.4
2019-03-08T10:24:12.732Z,23.4
2019-03-08T10:34:11.952Z,23.4
2019-03-08T10:44:11.817Z,23.5
2019-03-08T10:54:10.374Z,23.4
2019-03-08T11:04:09.583Z,23.5
2019-03-08T11:14:08.794Z,23.5
2019-03-08T11:24:08.007Z,23.5
2019-03-08T11:34:07.219Z,23.4
2019-03-08T11:44:06.432Z,23.4
2019-03-08T11:54:05.644Z,23.4
2019-03-08T12:04:04.856Z,23.4
2019-03-08T12:14:04.068Z,23.4
2019-03-08T12:24:03.282Z,23.4
2019-03-08T12:34:02.492Z,23.4
2019-03-08T12:44:01.703Z,23.4
2019-03-08T12:54:00.915Z,23.5
2019-03-08T13:04:00.125Z,23.5
2019-03-08T13:13:59.337Z,23.5
2019-03-08T13:23:58.551Z,23.4
2019-03-08T13:33:57.763Z,23.4
2019-03-08T13:43:56.971Z,23.4
2019-03-08T13:53:56.184Z,23.4
2019-03-08T14:03:55.444Z,23.4
2019-03-08T14:13:54.605Z,23.4
2019-03-08T14:23:53.818Z,23.4
2019-03-08T14:33:53.027Z,23.4
2019-03-08T14:43:53.580Z,23.4
2019-03-08T14:53:51.449Z,23.4
2019-03-08T15:03:50.662Z,23.4
2019-03-08T15:13:49.873Z,23.4
2019-03-08T15:23:50.799Z,23.4
2019-03-08T15:33:48.294Z,23.4
2019-03-08T15:43:51.097Z,23.4
2019-03-08T15:53:46.715Z,23.4
2019-03-08T16:03:45.926Z,23.3
2019-03-08T16:13:45.141Z,23.4
2019-03-08T16:23:44.347Z,23.3
2019-03-08T16:33:43.559Z,23.4
2019-03-08T16:43:45.704Z,23.4
2019-03-08T16:53:41.982Z,23.4
2019-03-08T17:03:41.244Z,23.4
2019-03-08T17:13:40.406Z,23.3
2019-03-08T17:23:39.618Z,23.3
2019-03-08T17:33:38.833Z,23.3
2019-03-08T17:43:38.042Z,23.3
2019-03-08T17:53:37.258Z,23.3
2019-03-08T18:03:36.464Z,23.3
2019-03-08T18:13:35.676Z,23.3
2019-03-08T18:23:34.898Z,23.3
2019-03-08T18:33:34.100Z,23.3
2019-03-08T18:43:33.311Z,23.3
2019-03-08T18:56:32.107Z,23.3
2019-03-08T19:06:31.326Z,23.3
2019-03-08T19:16:30.529Z,23.3
2019-03-08T19:26:29.741Z,23.3
2019-03-08T19:36:28.959Z,23.3
2019-03-08T19:46:28.179Z,23.3
2019-03-08T19:56:27.410Z,23.3
2019-03-08T20:06:26.709Z,23.3
2019-03-08T20:16:25.991Z,23.3
2019-03-08T20:26:25.285Z,23.3
2019-03-08T20:36:24.576Z,23.3
2019-03-08T20:46:23.866Z,23.3
2019-03-08T20:56:23.076Z,23.2
2019-03-08T21:06:22.287Z,23.2
2019-03-08T21:16:21.503Z,23.2
2019-03-08T21:26:20.711Z,23.2
2019-03-08T21:32:38.518Z,23.2
2019-03-08T21:42:37.727Z,23.3
2019-03-08T21:52:36.939Z,23.3
2019-03-08T22:02:36.152Z,23.3
2019-03-08T22:12:35.364Z,23.3
2019-03-08T22:22:34.572Z,23.3
2019-03-08T22:32:33.816Z,23.3
2019-03-08T22:42:33.104Z,23.3
2019-03-08T22:52:32.391Z,23.3
2019-03-08T23:02:31.678Z,23.3
2019-03-08T23:12:30.964Z,23.3
2019-03-08T23:22:30.251Z,23.3
2019-03-08T23:38:23.037Z,23.3
2019-03-08T23:48:22.243Z,23.3
2019-03-08T23:58:21.454Z,23.3
